createdAt,value
2019-05-15T00:01:28.523Z,88.72
2019-05-15T00:04:00.949Z,88.83
2019-05-15T00:06:33.759Z,88.87
2019-05-15T00:09:08.066Z,88.75
2019-05-15T00:11:40.192Z,88.63
2019-05-15T00:14:11.895Z,88.39
2019-05-15T00:16:43.415Z,88.38
2019-05-15T00:19:15.551Z,88.07
2019-05-15T00:21:49.034Z,88.36
2019-05-15T00:24:21.333Z,88.35
2019-05-15T00:26:53.345Z,88.50
2019-05-15T00:29:24.861Z,88.45
2019-05-15T00:31:58.918Z,88.34
2019-05-15T00:34:31.475Z,88.01
2019-05-15T00:37:03.600Z,87.96
2019-05-15T00:39:35.907Z,88.11
2019-05-15T00:42:08.288Z,88.08
2019-05-15T00:44:40.840Z,88.12
2019-05-15T00:47:13.141Z,87.68
2019-05-15T00:49:44.785Z,88.34
2019-05-15T00:52:18.061Z,87.66
2019-05-15T00:54:50.459Z,88.35
2019-05-15T00:57:22.793Z,88.85
2019-05-15T00:59:54.337Z,88.94
2019-05-15T01:02:25.922Z,88.11
2019-05-15T01:04:58.519Z,89.53
2019-05-15T01:07:30.326Z,89.82
2019-05-15T01:10:02.247Z,89.96
2019-05-15T01:12:34.166Z,89.96
2019-05-15T01:15:09.421Z,90.08
2019-05-15T01:17:41.511Z,90.15
2019-05-15T01:20:13.859Z,90.14
2019-05-15T01:22:48.362Z,89.90
2019-05-15T01:25:19.626Z,90.24
2019-05-15T01:27:51.073Z,90.82
2019-05-15T01:30:24.674Z,90.20
2019-05-15T01:32:56.265Z,90.68
2019-05-15T01:35:28.741Z,90.75
2019-05-15T01:38:01.293Z,90.83
2019-05-15T01:40:33.490Z,91.38
2019-05-15T01:43:05.191Z,91.54
2019-05-15T01:45:39.443Z,91.43
2019-05-15T01:48:10.675Z,91.49
2019-05-15T01:50:42.573Z,91.37
2019-05-15T01:53:14.827Z,90.88
2019-05-15T01:55:48.360Z,90.59
2019-05-15T01:58:20.540Z,90.34
2019-05-15T02:00:52.143Z,90.36
2019-05-15T02:03:24.258Z,90.14
2019-05-15T02:05:58.495Z,90.16
2019-05-15T02:08:30.026Z,90.33
2019-05-15T02:11:02.075Z,89.72
2019-05-15T02:13:33.681Z,89.77
2019-05-15T02:16:08.201Z,90.05
2019-05-15T02:18:39.560Z,89.58
2019-05-15T02:21:11.671Z,89.30
2019-05-15T02:23:43.785Z,89.35
2019-05-15T02:26:22.040Z,89.09
2019-05-15T02:28:54.114Z,89.04
2019-05-15T02:31:29.789Z,89.32
2019-05-15T02:34:00.119Z,89.45
2019-05-15T02:36:32.146Z,89.84
2019-05-15T02:39:08.692Z,89.74
2019-05-15T02:41:39.611Z,90.54
2019-05-15T02:44:12.370Z,91.26
2019-05-15T02:46:44.342Z,91.44
2019-05-15T02:49:19.039Z,91.89
2019-05-15T02:51:50.272Z,91.92
2019-05-15T02:54:21.972Z,92.12
2019-05-15T02:56:54.304Z,92.89
2019-05-15T02:59:29.082Z,93.55
2019-05-15T03:02:00.209Z,93.74
2019-05-15T03:04:32.435Z,93.67
2019-05-15T03:07:04.096Z,93.46
2019-05-15T03:09:36.181Z,93.16
2019-05-15T03:12:09.098Z,93.09
2019-05-15T03:14:41.919Z,93.02
2019-05-15T03:17:13.976Z,93.21
2019-05-15T03:19:45.644Z,93.38
2019-05-15T03:22:19.481Z,93.30
2019-05-15T03:24:51.107Z,93.06
2019-05-15T03:27:22.856Z,92.98
2019-05-15T03:29:55.156Z,92.94
2019-05-15T03:32:35.947Z,92.79
2019-05-15T03:35:04.888Z,92.49
2019-05-15T03:37:39.926Z,92.27
2019-05-15T03:40:10.198Z,91.91
2019-05-15T03:42:45.166Z,91.36
2019-05-15T03:45:19.219Z,90.71
2019-05-15T03:47:51.230Z,90.20
2019-05-15T03:50:28.998Z,89.54
2019-05-15T03:53:01.586Z,89.25
2019-05-15T03:55:36.185Z,89.06
2019-05-15T03:58:09.877Z,89.26
2019-05-15T04:00:41.900Z,89.44
2019-05-15T04:03:13.935Z,89.29
2019-05-15T04:05:49.210Z,88.87
2019-05-15T04:08:19.917Z,89.04
2019-05-15T04:10:52.237Z,89.23
2019-05-15T04:13:23.781Z,88.98
2019-05-15T04:15:59.099Z,89.11
2019-05-15T04:18:29.557Z,88.72
2019-05-15T04:21:01.491Z,88.77
2019-05-15T04:23:33.764Z,88.23
2019-05-15T04:26:05.323Z,88.36
2019-05-15T04:28:41.794Z,88.26
2019-05-15T04:31:13.886Z,88.57
2019-05-15T04:33:48.863Z,87.87
2019-05-15T04:36:20.095Z,87.38
2019-05-15T04:38:51.509Z,87.45
2019-05-15T04:41:23.541Z,87.54
2019-05-15T04:43:55.197Z,87.08
2019-05-15T04:46:30.082Z,86.80
2019-05-15T04:49:02.136Z,86.30
2019-05-15T04:51:34.164Z,86.47
2019-05-15T04:54:09.298Z,86.01
2019-05-15T04:56:40.316Z,84.79
2019-05-15T04:59:12.060Z,84.59
2019-05-15T05:01:44.301Z,84.22
2019-05-15T05:04:18.728Z,84.60
2019-05-15T05:06:49.922Z,84.31
2019-05-15T05:09:21.730Z,83.35
2019-05-15T05:11:53.273Z,83.42
2019-05-15T05:14:28.320Z,82.77
2019-05-15T05:16:59.286Z,82.72
2019-05-15T05:19:31.358Z,81.34
2019-05-15T05:22:02.966Z,81.65
2019-05-15T05:24:34.428Z,81.35
2019-05-15T05:27:08.722Z,79.36
2019-05-15T05:29:40.843Z,79.88
2019-05-15T05:32:28.152Z,77.54
2019-05-15T05:34:48.328Z,77.13
2019-05-15T05:37:20.030Z,78.71
2019-05-15T05:39:52.082Z,77.92
2019-05-15T05:42:24.079Z,77.46
2019-05-15T05:44:58.142Z,76.00
2019-05-15T05:47:29.888Z,76.67
2019-05-15T05:50:02.795Z,77.41
2019-05-15T05:52:39.463Z,77.44
2019-05-15T05:55:11.538Z,77.72
2019-05-15T05:57:42.967Z,77.48
2019-05-15T06:00:18.232Z,77.79
2019-05-15T06:02:52.483Z,77.48
2019-05-15T06:05:24.707Z,77.99
2019-05-15T06:07:58.204Z,77.47
2019-05-15T06:10:32.616Z,77.61
2019-05-15T06:13:04.990Z,79.16
2019-05-15T06:15:40.197Z,79.71
2019-05-15T06:18:11.960Z,79.36
2019-05-15T06:20:44.039Z,78.38
2019-05-15T06:23:22.224Z,78.30
2019-05-15T06:25:49.317Z,78.66
2019-05-15T06:28:23.962Z,78.64
2019-05-15T06:31:00.380Z,78.19
2019-05-15T06:33:29.461Z,78.68
2019-05-15T06:36:01.144Z,77.05
2019-05-15T06:38:39.521Z,76.42
2019-05-15T06:41:11.272Z,75.43
2019-05-15T06:43:42.817Z,75.55
2019-05-15T06:46:15.618Z,74.00
2019-05-15T06:48:48.603Z,72.18
2019-05-15T06:51:20.771Z,72.06
2019-05-15T06:53:52.318Z,71.30
2019-05-15T06:56:23.822Z,70.39
2019-05-15T06:58:57.732Z,69.84
2019-05-15T07:01:29.634Z,69.12
2019-05-15T07:04:01.162Z,67.80
2019-05-15T07:06:33.461Z,67.48
2019-05-15T07:09:09.204Z,66.47
2019-05-15T07:11:40.109Z,65.07
2019-05-15T07:14:12.312Z,64.03
2019-05-15T07:16:44.079Z,64.34
2019-05-15T07:19:18.828Z,63.94
2019-05-15T07:21:49.776Z,64.16
2019-05-15T07:24:21.599Z,65.90
2019-05-15T07:26:54.626Z,66.07
2019-05-15T07:29:31.396Z,66.58
2019-05-15T07:32:10.355Z,66.37
2019-05-15T07:34:41.976Z,65.60
2019-05-15T07:37:15.059Z,65.18
2019-05-15T07:39:48.786Z,66.24
2019-05-15T07:42:22.598Z,65.05
2019-05-15T07:44:58.782Z,65.36
2019-05-15T07:47:33.082Z,65.27
2019-05-15T07:50:26.585Z,65.36
2019-05-15T07:56:28.859Z,65.96
2019-05-15T07:59:31.032Z,63.11
2019-05-15T08:02:10.901Z,62.75
2019-05-15T08:04:57.989Z,62.11
2019-05-15T08:07:24.905Z,58.61
2019-05-15T08:09:59.217Z,56.29
2019-05-15T08:12:31.572Z,57.80
2019-05-15T08:15:03.081Z,56.33
2019-05-15T08:17:35.144Z,57.12
2019-05-15T08:20:09.477Z,57.96
2019-05-15T08:22:41.484Z,58.13
2019-05-15T08:25:30.078Z,60.29
2019-05-15T08:27:48.623Z,60.11
2019-05-15T08:30:22.448Z,58.95
2019-05-15T08:32:54.390Z,57.81
2019-05-15T08:35:29.170Z,58.25
2019-05-15T08:38:01.696Z,57.26
2019-05-15T08:40:33.608Z,58.47
2019-05-15T08:43:05.434Z,60.82
2019-05-15T08:45:39.153Z,61.12
2019-05-15T08:48:15.617Z,60.84
2019-05-15T08:50:49.896Z,60.98
2019-05-15T08:53:22.215Z,60.91
2019-05-15T08:55:54.449Z,62.02
2019-05-15T08:58:26.164Z,62.85
2019-05-15T09:00:59.265Z,62.63
2019-05-15T09:03:31.642Z,62.88
2019-05-15T09:06:03.639Z,61.90
2019-05-15T09:08:35.366Z,62.24
2019-05-15T09:11:09.479Z,63.02
2019-05-15T09:13:44.159Z,63.44
2019-05-15T09:16:18.586Z,63.81
2019-05-15T09:18:50.840Z,65.14
2019-05-15T09:21:22.545Z,65.48
2019-05-15T09:23:54.519Z,65.62
2019-05-15T09:26:28.362Z,65.98
2019-05-15T09:29:00.331Z,64.81
2019-05-15T09:31:32.524Z,67.07
2019-05-15T09:34:09.098Z,67.10
2019-05-15T09:36:44.954Z,67.08
2019-05-15T09:39:19.218Z,67.87
2019-05-15T09:41:54.707Z,68.37
2019-05-15T09:44:28.335Z,69.51
2019-05-15T09:47:00.453Z,69.21
2019-05-15T09:49:32.211Z,69.36
2019-05-15T09:52:08.993Z,68.98
2019-05-15T09:54:40.139Z,68.17
2019-05-15T09:57:12.583Z,68.36
2019-05-15T09:59:44.720Z,68.20
2019-05-15T10:02:18.946Z,67.23
2019-05-15T10:05:05.570Z,67.21
2019-05-15T10:07:23.791Z,67.19
2019-05-15T10:09:55.811Z,67.68
2019-05-15T10:12:34.518Z,67.91
2019-05-15T10:15:01.132Z,67.26
2019-05-15T10:17:33.985Z,68.32
2019-05-15T10:20:09.141Z,67.56
2019-05-15T10:22:41.961Z,67.80
2019-05-15T10:25:14.941Z,67.44
2019-05-15T10:27:49.880Z,67.60
2019-05-15T10:30:22.173Z,67.98
2019-05-15T10:32:54.992Z,68.19
2019-05-15T10:35:31.574Z,68.38
2019-05-15T10:38:01.921Z,68.41
2019-05-15T10:40:34.877Z,68.17
2019-05-15T10:43:09.033Z,68.04
2019-05-15T10:45:42.673Z,69.29
2019-05-15T10:48:14.344Z,68.70
2019-05-15T10:50:49.320Z,70.11
2019-05-15T10:53:23.311Z,69.37
2019-05-15T10:55:55.774Z,69.72
2019-05-15T10:58:39.163Z,69.85
2019-05-15T11:01:11.275Z,70.22
2019-05-15T11:03:43.256Z,69.50
2019-05-15T11:06:35.439Z,70.59
2019-05-15T11:09:10.104Z,71.04
2019-05-15T11:11:42.469Z,69.97
2019-05-15T11:14:14.542Z,70.32
2019-05-15T11:16:48.590Z,70.51
2019-05-15T11:19:21.811Z,70.57
2019-05-15T11:21:53.333Z,70.65
2019-05-15T11:24:25.715Z,70.68
2019-05-15T11:26:59.453Z,71.87
2019-05-15T11:29:43.656Z,70.77
2019-05-15T11:32:16.867Z,69.92
2019-05-15T11:34:58.287Z,70.26
2019-05-15T11:37:45.287Z,69.22
2019-05-15T11:40:23.888Z,67.94
2019-05-15T11:42:59.780Z,66.39
2019-05-15T11:45:35.132Z,66.49
2019-05-15T11:48:09.010Z,67.29
2019-05-15T11:50:41.626Z,67.44
2019-05-15T11:53:14.077Z,67.97
2019-05-15T11:55:48.128Z,67.30
2019-05-15T11:58:20.055Z,67.73
2019-05-15T12:00:53.400Z,67.59
2019-05-15T12:03:25.120Z,67.37
2019-05-15T12:05:58.388Z,68.01
2019-05-15T12:08:32.886Z,68.48
2019-05-15T12:11:05.261Z,68.55
2019-05-15T12:13:38.163Z,68.68
2019-05-15T12:16:10.397Z,68.55
2019-05-15T12:18:42.434Z,67.29
2019-05-15T12:21:20.398Z,67.91
2019-05-15T12:23:52.413Z,67.49
2019-05-15T12:26:24.057Z,67.35
2019-05-15T12:28:59.011Z,67.77
2019-05-15T12:31:30.914Z,68.08
2019-05-15T12:34:03.029Z,67.11
2019-05-15T12:36:50.785Z,67.51
2019-05-15T12:39:13.795Z,67.61
2019-05-15T12:59:49.580Z,67.83
2019-05-15T13:02:21.448Z,67.54
2019-05-15T13:04:54.317Z,66.63
2019-05-15T13:07:28.587Z,66.06
2019-05-15T13:10:01.070Z,66.57
2019-05-15T13:12:33.123Z,65.66
2019-05-15T13:15:08.038Z,66.62
2019-05-15T13:17:39.100Z,66.21
2019-05-15T13:20:13.934Z,66.67
2019-05-15T13:25:19.583Z,67.30
2019-05-15T13:27:51.088Z,66.91
2019-05-15T13:30:23.793Z,66.60
2019-05-15T13:32:55.510Z,66.36
2019-05-15T13:35:28.489Z,66.73
2019-05-15T13:38:00.300Z,67.00
2019-05-15T13:40:41.216Z,66.96
2019-05-15T13:43:11.224Z,67.82
2019-05-15T13:45:43.260Z,67.50
2019-05-15T13:48:17.534Z,67.55
2019-05-15T13:50:48.569Z,68.01
2019-05-15T13:53:20.190Z,67.65
2019-05-15T13:56:53.148Z,68.65
2019-05-15T13:59:25.016Z,69.01
2019-05-15T14:01:59.203Z,68.94
2019-05-15T14:04:32.871Z,69.05
2019-05-15T14:07:04.678Z,68.98
2019-05-15T14:09:43.501Z,69.34
2019-05-15T14:12:12.556Z,69.24
2019-05-15T14:14:43.805Z,69.13
2019-05-15T14:17:16.061Z,69.17
2019-05-15T14:19:48.548Z,69.12
2019-05-15T14:22:20.578Z,69.23
2019-05-15T14:24:52.623Z,69.84
2019-05-15T14:27:24.584Z,69.78
2019-05-15T14:29:58.198Z,69.65
2019-05-15T14:32:38.134Z,68.62
2019-05-15T14:35:03.372Z,68.71
2019-05-15T14:37:35.060Z,68.91
2019-05-15T14:40:30.107Z,69.58
2019-05-15T14:43:54.658Z,70.25
2019-05-15T14:47:01.951Z,70.21
2019-05-15T14:49:43.597Z,69.50
2019-05-15T14:52:10.250Z,69.80
2019-05-15T14:54:42.355Z,69.73
2019-05-15T14:57:33.206Z,69.89
2019-05-15T15:00:08.910Z,70.07
2019-05-15T15:02:40.431Z,70.12
2019-05-15T15:05:12.688Z,70.51
2019-05-15T15:07:45.660Z,70.65
2019-05-15T15:10:20.183Z,70.41
2019-05-15T15:12:58.500Z,70.59
2019-05-15T15:16:29.173Z,69.09
2019-05-15T15:19:01.121Z,68.95
2019-05-15T15:21:33.416Z,69.31
2019-05-15T15:24:08.169Z,69.26
2019-05-15T15:26:41.985Z,69.70
2019-05-15T15:29:13.621Z,70.18
2019-05-15T15:31:45.616Z,70.29
2019-05-15T15:34:19.763Z,70.14
2019-05-15T15:36:51.766Z,69.62
2019-05-15T15:39:28.121Z,70.35
2019-05-15T15:41:59.713Z,71.13
2019-05-15T15:44:38.035Z,71.45
2019-05-15T15:47:13.850Z,71.44
2019-05-15T15:49:47.965Z,71.49
2019-05-15T15:52:22.204Z,71.73
2019-05-15T15:54:54.382Z,72.37
2019-05-15T15:57:28.379Z,72.91
2019-05-15T16:00:02.237Z,73.66
2019-05-15T16:03:22.545Z,73.47
2019-05-15T16:05:52.002Z,73.52
2019-05-15T16:08:23.610Z,73.53
2019-05-15T16:10:56.136Z,73.93
2019-05-15T16:13:29.279Z,73.93
2019-05-15T16:16:03.452Z,74.42
2019-05-15T16:18:35.349Z,74.79
2019-05-15T16:21:08.816Z,75.38
2019-05-15T16:23:40.884Z,75.17
2019-05-15T16:26:12.493Z,75.58
2019-05-15T16:28:48.931Z,75.70
2019-05-15T16:31:21.023Z,75.52
2019-05-15T16:33:54.657Z,75.52
2019-05-15T16:36:26.534Z,76.07
2019-05-15T16:39:07.638Z,76.63
2019-05-15T16:41:34.478Z,76.83
2019-05-15T16:44:08.706Z,77.57
2019-05-15T16:46:40.662Z,77.90
2019-05-15T16:49:14.717Z,77.52
2019-05-15T16:51:49.491Z,77.72
2019-05-15T16:54:22.176Z,77.94
2019-05-15T16:56:59.447Z,78.06
2019-05-15T16:59:35.783Z,77.96
2019-05-15T17:02:08.741Z,77.82
2019-05-15T17:04:40.193Z,77.61
2019-05-15T17:07:15.065Z,77.80
2019-05-15T17:09:51.918Z,77.71
2019-05-15T17:13:31.082Z,77.29
2019-05-15T17:16:05.009Z,77.45
2019-05-15T17:21:48.749Z,77.56
2019-05-15T17:24:26.035Z,77.01
2019-05-15T17:27:13.710Z,77.01
2019-05-15T17:29:49.078Z,77.08
2019-05-15T17:32:20.950Z,76.93
2019-05-15T17:35:18.550Z,76.44
2019-05-15T17:37:50.991Z,76.67
2019-05-15T17:40:24.334Z,77.03
2019-05-15T17:43:02.157Z,77.52
2019-05-15T17:45:48.180Z,77.25
2019-05-15T17:48:19.638Z,77.17
2019-05-15T17:50:52.828Z,77.63
2019-05-15T17:53:25.745Z,77.62
2019-05-15T17:56:05.398Z,77.13
2019-05-15T17:58:38.217Z,77.31
2019-05-15T18:01:14.634Z,76.72
2019-05-15T18:03:48.554Z,76.96
2019-05-15T18:06:29.729Z,76.85
2019-05-15T18:09:02.614Z,76.90
2019-05-15T18:11:35.539Z,76.88
2019-05-15T18:14:08.976Z,76.96
2019-05-15T18:16:48.651Z,76.94
2019-05-15T18:19:27.758Z,76.83
2019-05-15T18:22:00.842Z,76.71
2019-05-15T18:24:38.348Z,77.21
2019-05-15T18:28:18.660Z,76.89
2019-05-15T18:30:38.976Z,77.41
2019-05-15T18:33:01.455Z,77.25
2019-05-15T18:35:34.954Z,77.46
2019-05-15T18:38:09.432Z,77.63
2019-05-15T18:40:41.318Z,77.32
2019-05-15T18:43:13.078Z,77.94
2019-05-15T18:45:49.157Z,77.79
2019-05-15T18:48:21.260Z,77.92
2019-05-15T18:50:58.736Z,78.44
2019-05-15T18:53:41.017Z,79.00
2019-05-15T18:56:12.933Z,79.03
2019-05-15T18:58:44.983Z,78.40
2019-05-15T19:01:17.805Z,78.67
2019-05-15T19:04:06.198Z,77.80
2019-05-15T19:06:40.747Z,77.57
2019-05-15T19:09:12.820Z,78.06
2019-05-15T19:11:48.758Z,78.38
2019-05-15T19:14:22.886Z,77.38
2019-05-15T19:16:55.425Z,76.75
2019-05-15T19:19:28.217Z,77.00
2019-05-15T19:22:02.025Z,76.45
2019-05-15T19:24:34.938Z,76.80
2019-05-15T19:27:08.058Z,77.20
2019-05-15T19:29:40.412Z,77.37
2019-05-15T19:32:12.878Z,78.19
2019-05-15T19:34:45.025Z,79.18
2019-05-15T19:37:18.312Z,79.27
2019-05-15T19:39:50.559Z,79.72
2019-05-15T19:42:22.836Z,79.79
2019-05-15T19:44:58.911Z,80.13
2019-05-15T19:47:30.958Z,80.06
2019-05-15T19:50:03.119Z,80.11
2019-05-15T19:52:35.288Z,79.95
2019-05-15T19:55:08.920Z,79.76
2019-05-15T19:57:41.097Z,80.33
2019-05-15T20:00:13.966Z,80.02
2019-05-15T20:02:48.455Z,80.05
2019-05-15T20:05:19.696Z,80.31
2019-05-15T20:07:52.001Z,80.20
2019-05-15T20:10:25.806Z,80.32
2019-05-15T20:12:58.413Z,80.19
2019-05-15T20:15:30.662Z,80.62
2019-05-15T20:18:05.012Z,80.74
2019-05-15T20:20:44.146Z,80.33
2019-05-15T20:23:18.800Z,80.48
2019-05-15T20:25:50.717Z,80.33
2019-05-15T20:28:22.210Z,80.05
2019-05-15T20:30:53.773Z,80.62
2019-05-15T20:33:25.721Z,80.88
2019-05-15T20:35:58.777Z,81.18
2019-05-15T20:38:30.979Z,81.60
2019-05-15T20:41:03.437Z,82.08
2019-05-15T20:43:35.595Z,81.56
2019-05-15T20:46:08.499Z,81.67
2019-05-15T20:48:40.922Z,82.37
2019-05-15T20:51:12.738Z,82.22
2019-05-15T20:53:44.321Z,82.28
2019-05-15T20:56:16.285Z,82.16
2019-05-15T20:58:48.452Z,82.79
2019-05-15T21:01:20.185Z,82.89
2019-05-15T21:03:54.555Z,83.73
2019-05-15T21:06:28.331Z,83.54
2019-05-15T21:09:00.211Z,83.97
2019-05-15T21:11:32.358Z,84.10
2019-05-15T21:14:04.790Z,83.95
2019-05-15T21:16:36.294Z,84.06
2019-05-15T21:19:08.651Z,83.91
2019-05-15T21:21:40.468Z,83.64
2019-05-15T21:24:12.603Z,84.35
2019-05-15T21:26:44.578Z,84.28
2019-05-15T21:29:18.482Z,84.00
2019-05-15T21:31:50.373Z,84.53
2019-05-15T21:34:33.630Z,85.01
2019-05-15T21:36:55.612Z,85.10
2019-05-15T21:39:28.102Z,85.08
2019-05-15T21:42:01.456Z,85.19
2019-05-15T21:44:33.422Z,85.36
2019-05-15T21:47:05.438Z,85.55
2019-05-15T21:49:38.781Z,85.70
2019-05-15T21:52:10.732Z,85.55
2019-05-15T21:54:42.438Z,85.89
2019-05-15T21:57:31.844Z,85.86
2019-05-15T21:59:50.658Z,85.85
2019-05-15T22:02:22.193Z,85.80
2019-05-15T22:04:56.075Z,85.80
2019-05-15T22:07:28.210Z,85.78
2019-05-15T22:10:00.036Z,85.93
2019-05-15T22:12:31.885Z,85.57
2019-05-15T22:15:04.354Z,85.63
2019-05-15T22:17:38.691Z,85.39
2019-05-15T22:20:12.453Z,84.52
2019-05-15T22:22:43.899Z,84.72
2019-05-15T22:25:18.756Z,84.90
2019-05-15T22:27:50.465Z,84.87
2019-05-15T22:30:22.819Z,85.14
2019-05-15T22:32:54.559Z,85.09
2019-05-15T22:35:29.137Z,85.41
2019-05-15T22:38:00.628Z,85.47
2019-05-15T22:40:32.869Z,85.39
2019-05-15T22:43:04.425Z,85.23
2019-05-15T22:45:37.689Z,85.15
2019-05-15T22:48:09.375Z,85.53
2019-05-15T22:50:41.762Z,85.35
2019-05-15T22:53:13.642Z,85.68
2019-05-15T22:55:45.389Z,85.94
2019-05-15T22:58:18.342Z,85.48
2019-05-15T23:00:50.405Z,85.53
2019-05-15T23:03:22.669Z,85.31
2019-05-15T23:05:54.794Z,85.52
2019-05-15T23:08:28.823Z,85.77
2019-05-15T23:11:00.564Z,85.70
2019-05-15T23:13:32.792Z,85.87
2019-05-15T23:16:05.036Z,85.98
2019-05-15T23:18:36.659Z,85.67
2019-05-15T23:21:08.825Z,85.37
2019-05-15T23:23:40.800Z,85.54
2019-05-15T23:26:13.058Z,85.76
2019-05-15T23:28:44.996Z,85.69
2019-05-15T23:31:18.923Z,85.72
2019-05-15T23:33:51.361Z,84.95
2019-05-15T23:36:23.359Z,84.99
2019-05-15T23:38:55.031Z,84.70
2019-05-15T23:41:28.095Z,84.56
2019-05-15T23:44:00.230Z,84.71
2019-05-15T23:46:34.295Z,84.47
2019-05-15T23:49:08.275Z,84.48
2019-05-15T23:51:40.598Z,84.60
2019-05-15T23:54:12.972Z,84.65
2019-05-15T23:56:45.144Z,84.82
2019-05-15T23:59:18.779Z,84.96
